Details for Qantas at YPAD




Go Back


Latest METAR
Local Time

YPAD 250430Z 01010KT CAVOK 20/05 Q1023 NOSIG

25/05/2018, 14:26:35

Description
Results
Qantas Logo
Number of Pilots based at YPAD
0 Pilots Based here
Number of Qantas Flights Departed from YPAD
6 Flights Departed
Number of Qantas Flights Arrived at YPAD
7 Flights Arrived
Number of Qantas Schedules Departing from YPAD
38 Schedules
Number of Qantas Schedules Arriving at YPAD
39 Schedules
Number of Qantas Schedules Departing from YPAD availible today
28 Schedules Today
Number of Qantas Schedules Arriving at YPAD availible today
29 Schedules Today
Average Landing Rate at YPAD
-93 fpm
Qantas Average Landing Rate at YPAD
-85 fpm
Total Fuel Purchased at YPAD by Qantas
26,797.78 kgs / 59,078.39 lbs

Pilots Based at YPAD


Pilot ID
Pilot Name
Pilot Rank
No. of Flights
No. of Flying Hours
There are no pilots assigned to this hub!   Will you be the first?
Content